Time;durP1;ratioP1;P1;durP2;ratioP2;P2;SDS_P1;SDS_P2;PMS_P1;PMS_P2;Temp;Humidity;BMP_temperature;BMP_pressure;BME280_temperature;BME280_humidity;BME280_pressure;Samples;Min_cycle;Max_cycle;Signal;HPM_P1;HPM_P2
2021/06/24 00:01:28;;;;;;;16.98;9.18;;;;;;;27.07;45.85;100254.19;5094523;28;20039;-59
2021/06/24 00:03:53;;;;;;;21.42;8.32;;;;;;;27.06;45.99;100255.28;5106489;28;20046;-58
2021/06/24 00:06:19;;;;;;;24.27;9.18;;;;;;;26.88;46.23;100236.78;5108143;28;20084;-58
2021/06/24 00:08:45;;;;;;;19.33;9.43;;;;;;;26.97;46.26;100256.59;5107817;28;20050;-57
2021/06/24 00:11:12;;;;;;;21.25;9.38;;;;;;;26.93;46.42;100247.09;5106564;28;20078;-57
2021/06/24 00:13:39;;;;;;;20.02;9.18;;;;;;;26.90;46.96;100261.28;5107164;28;20079;-57
2021/06/24 00:16:06;;;;;;;17.73;8.88;;;;;;;26.42;46.75;100183.00;5110305;28;20062;-54
2021/06/24 00:18:31;;;;;;;20.70;9.35;;;;;;;26.84;46.71;100251.16;5110322;28;20055;-59
2021/06/24 00:20:57;;;;;;;17.52;8.88;;;;;;;26.80;46.88;100240.63;5108701;28;20035;-59
2021/06/24 00:23:24;;;;;;;20.92;9.60;;;;;;;26.79;47.55;100255.41;5108326;28;20035;-58
2021/06/24 00:25:49;;;;;;;19.10;9.65;;;;;;;26.77;47.69;100238.31;5110481;28;20032;-57
2021/06/24 00:28:16;;;;;;;24.27;10.27;;;;;;;26.75;47.44;100248.66;5109626;28;20500;-59
2021/06/24 00:30:43;;;;;;;17.90;9.82;;;;;;;26.73;47.63;100261.78;5110455;28;20024;-59
2021/06/24 00:33:09;;;;;;;20.10;9.43;;;;;;;26.40;48.11;100201.56;5090441;28;20407;-56
2021/06/24 00:35:34;;;;;;;17.92;9.82;;;;;;;26.54;47.66;100230.63;5090035;28;20043;-57
2021/06/24 00:38:00;;;;;;;25.65;9.98;;;;;;;26.65;47.75;100253.81;5089247;28;20047;-55
2021/06/24 00:40:26;;;;;;;20.60;10.55;;;;;;;26.62;48.11;100255.06;5089740;28;20040;-57
2021/06/24 00:42:53;;;;;;;21.13;10.20;;;;;;;26.59;48.41;100262.94;5091334;28;20048;-58
2021/06/24 00:45:19;;;;;;;19.77;10.35;;;;;;;26.58;48.24;100258.50;5089903;28;20093;-60
2021/06/24 00:47:45;;;;;;;16.00;10.80;;;;;;;26.48;48.45;100248.81;5089337;28;20047;-59
2021/06/24 00:50:12;;;;;;;16.52;10.20;;;;;;;26.55;48.35;100264.44;5088287;28;20036;-59
2021/06/24 00:52:38;;;;;;;22.45;9.95;;;;;;;26.50;48.40;100252.19;5105664;28;20068;-55
2021/06/24 00:55:05;;;;;;;20.80;10.18;;;;;;;26.31;48.68;100221.03;5109646;28;20063;-58
2021/06/24 00:57:45;;;;;;;19.13;10.25;;;;;;;26.65;48.54;100292.25;5088224;28;20043;-52
2021/06/24 01:00:11;;;;;;;25.13;11.23;;;;;;;26.61;48.57;100291.00;5087099;28;20455;-55
2021/06/24 01:02:38;;;;;;;20.42;10.80;;;;;;;26.65;48.21;100297.75;5098843;28;20039;-55
2021/06/24 01:05:05;;;;;;;25.45;11.75;;;;;;;26.59;48.42;100280.22;5107698;28;20041;-55
2021/06/24 01:07:31;;;;;;;24.05;11.35;;;;;;;26.62;48.43;100279.78;5107661;28;20127;-58
2021/06/24 01:10:00;;;;;;;23.27;10.40;;;;;;;26.67;48.42;100286.56;5108283;28;20032;-59
2021/06/24 01:12:27;;;;;;;22.60;11.77;;;;;;;26.67;48.62;100286.56;5090789;28;20063;-58
2021/06/24 01:14:52;;;;;;;23.15;12.00;;;;;;;26.60;48.72;100276.44;5089643;28;20044;-58
2021/06/24 01:17:18;;;;;;;24.45;11.82;;;;;;;26.66;48.75;100291.19;5091873;28;20028;-57
2021/06/24 01:19:44;;;;;;;23.30;12.23;;;;;;;26.68;48.67;100291.81;5092967;28;20122;-55
2021/06/24 01:22:10;;;;;;;22.13;11.57;;;;;;;26.45;48.73;100249.25;5093951;28;20085;-57
2021/06/24 01:24:35;;;;;;;21.98;12.43;;;;;;;26.68;48.71;100280.00;5093070;28;20043;-55
2021/06/24 01:27:01;;;;;;;25.00;12.20;;;;;;;26.68;48.53;100269.00;5093083;28;20039;-54
2021/06/24 01:29:27;;;;;;;27.08;12.60;;;;;;;26.77;48.77;100274.03;5091397;28;20032;-55
2021/06/24 01:31:52;;;;;;;20.67;12.13;;;;;;;26.84;48.81;100284.13;5108545;28;20034;-57
2021/06/24 01:34:18;;;;;;;25.52;12.32;;;;;;;26.87;48.34;100291.97;5113133;28;20070;-55
2021/06/24 01:36:44;;;;;;;22.60;12.07;;;;;;;26.87;48.48;100278.22;5113112;28;20063;-57
2021/06/24 01:39:12;;;;;;;25.45;12.90;;;;;;;26.58;49.24;100242.03;5113011;27;20057;-57
2021/06/24 01:41:37;;;;;;;27.30;12.30;;;;;;;26.86;49.15;100279.28;5104428;28;20048;-55
2021/06/24 01:44:04;;;;;;;29.17;12.85;;;;;;;26.90;48.97;100286.03;5092621;28;20050;-58
2021/06/24 01:46:29;;;;;;;21.10;12.63;;;;;;;26.81;49.27;100274.41;5092689;28;20583;-57
2021/06/24 01:48:55;;;;;;;23.02;12.50;;;;;;;26.85;49.37;100272.09;5093350;28;20036;-60
2021/06/24 01:51:22;;;;;;;30.55;12.32;;;;;;;26.98;49.33;100288.50;5105072;28;20035;-58
2021/06/24 01:53:49;;;;;;;26.65;12.32;;;;;;;27.02;48.84;100291.66;5112620;28;20130;-55
2021/06/24 01:56:14;;;;;;;31.35;13.95;;;;;;;26.77;49.12;100254.81;5109270;28;20039;-58
2021/06/24 01:58:40;;;;;;;22.33;11.85;;;;;;;27.05;48.66;100277.47;5091212;28;20035;-59
2021/06/24 02:01:05;;;;;;;19.52;12.07;;;;;;;27.17;48.32;100294.94;5096923;28;20039;-59
2021/06/24 02:03:38;;;;;;;23.25;12.63;;;;;;;27.25;48.71;100304.81;5111321;28;20130;-57
2021/06/24 02:06:05;;;;;;;24.58;12.63;;;;;;;27.23;48.56;100299.53;5112680;28;20027;-56
2021/06/24 02:08:35;;;;;;;18.65;12.70;;;;;;;27.24;48.28;100303.09;5113143;28;20038;-56
2021/06/24 02:11:02;;;;;;;16.38;11.90;;;;;;;27.26;48.17;100295.50;5109482;28;20024;-56
2021/06/24 02:13:27;;;;;;;25.15;11.85;;;;;;;27.18;48.29;100274.63;5096139;28;20090;-58
2021/06/24 02:15:54;;;;;;;22.85;12.00;;;;;;;27.45;47.52;100295.53;5088355;28;20075;-51
2021/06/24 02:18:29;;;;;;;20.25;12.35;;;;;;;27.30;47.25;100247.25;5089908;28;20100;-59
2021/06/24 02:20:54;;;;;;;18.30;11.55;;;;;;;27.69;47.08;100285.63;5089898;28;20044;-59
2021/06/24 02:23:20;;;;;;;19.52;11.85;;;;;;;27.83;46.94;100288.25;5104637;28;20380;-56
2021/06/24 02:25:46;;;;;;;23.23;11.80;;;;;;;27.68;46.38;100230.84;5109941;28;20031;-59
2021/06/24 02:28:11;;;;;;;20.15;11.73;;;;;;;28.14;46.21;100280.94;5104925;28;20491;-59
2021/06/24 02:30:37;;;;;;;24.60;11.55;;;;;;;28.37;45.76;100280.25;5110043;28;20028;-57
2021/06/24 02:33:05;;;;;;;16.85;11.30;;;;;;;28.54;46.01;100291.47;5097631;28;20044;-60
2021/06/24 02:35:34;;;;;;;22.30;11.95;;;;;;;28.74;45.00;100293.13;5089390;28;20068;-55
2021/06/24 02:38:00;;;;;;;23.80;12.70;;;;;;;28.92;44.54;100286.75;5089916;28;20042;-58
2021/06/24 02:40:25;;;;;;;26.95;12.55;;;;;;;29.16;44.12;100275.78;5089711;28;20071;-56
2021/06/24 02:42:51;;;;;;;21.30;11.95;;;;;;;29.43;43.73;100275.41;5090116;28;20484;-55
2021/06/24 02:45:16;;;;;;;23.05;12.48;;;;;;;29.79;42.93;100284.50;5088175;28;20039;-57
2021/06/24 02:47:42;;;;;;;21.35;11.85;;;;;;;29.94;42.50;100279.34;5091658;28;20028;-53
2021/06/24 02:50:09;;;;;;;22.23;11.70;;;;;;;30.11;41.94;100286.06;5091361;28;20028;-57
2021/06/24 02:52:35;;;;;;;27.95;13.25;;;;;;;30.09;42.14;100261.44;5089839;28;20055;-57
2021/06/24 02:55:01;;;;;;;23.95;12.48;;;;;;;30.27;41.60;100281.69;5092567;28;20032;-56
2021/06/24 02:57:27;;;;;;;18.25;11.52;;;;;;;30.42;41.70;100270.97;5091224;28;20036;-60
2021/06/24 02:59:53;;;;;;;26.45;12.52;;;;;;;30.60;41.04;100277.38;5091282;28;20035;-58
2021/06/24 03:02:19;;;;;;;23.27;13.27;;;;;;;30.93;40.59;100264.75;5091099;28;20035;-53
2021/06/24 03:04:45;;;;;;;23.17;13.48;;;;;;;31.39;39.60;100272.19;5092110;28;20447;-57
2021/06/24 03:07:10;;;;;;;24.90;12.95;;;;;;;31.77;38.88;100276.09;5091182;28;20028;-55
2021/06/24 03:09:36;;;;;;;25.65;12.57;;;;;;;32.12;38.26;100263.84;5090991;28;20028;-55
2021/06/24 03:12:02;;;;;;;24.48;12.30;;;;;;;32.47;37.76;100267.34;5092464;28;20056;-60
2021/06/24 03:14:28;;;;;;;24.88;12.57;;;;;;;32.73;37.15;100253.75;5091550;28;20465;-54
2021/06/24 03:16:53;;;;;;;29.60;13.27;;;;;;;33.12;36.20;100255.53;5091019;28;20126;-56
2021/06/24 03:19:20;;;;;;;24.80;13.30;;;;;;;33.53;35.37;100274.47;5090822;28;20036;-57
2021/06/24 03:21:45;;;;;;;27.13;13.98;;;;;;;33.95;34.88;100279.16;5090587;28;20063;-54
2021/06/24 03:24:11;;;;;;;21.48;12.60;;;;;;;34.35;34.42;100265.75;5090484;28;20409;-57
2021/06/24 03:26:37;;;;;;;24.25;14.23;;;;;;;34.69;33.41;100275.59;5090817;28;20036;-58
2021/06/24 03:29:04;;;;;;;27.58;14.30;;;;;;;34.87;32.87;100268.66;5089718;28;20130;-57
2021/06/24 03:31:29;;;;;;;22.83;12.82;;;;;;;35.08;32.30;100263.97;5090653;28;20510;-55
2021/06/24 03:33:55;;;;;;;26.05;13.45;;;;;;;35.29;32.10;100270.38;5091451;28;20036;-55
2021/06/24 03:36:21;;;;;;;26.35;13.88;;;;;;;35.21;31.76;100212.53;5090662;28;20036;-57
2021/06/24 03:38:48;;;;;;;23.98;13.15;;;;;;;35.57;31.26;100234.75;5090141;28;20031;-55
2021/06/24 03:41:15;;;;;;;22.40;13.75;;;;;;;36.12;30.41;100270.25;5090076;28;20032;-56
2021/06/24 03:43:42;;;;;;;23.15;13.93;;;;;;;36.41;30.09;100263.16;5099471;28;20470;-57
2021/06/24 03:46:08;;;;;;;25.17;13.43;;;;;;;36.64;29.50;100264.44;5110807;28;20118;-53
2021/06/24 03:48:34;;;;;;;28.63;12.85;;;;;;;37.04;29.06;100265.28;5110592;28;20490;-59
2021/06/24 03:51:00;;;;;;;19.58;12.15;;;;;;;37.48;28.42;100265.47;5110656;28;20031;-57
2021/06/24 03:53:25;;;;;;;21.50;11.80;;;;;;;37.97;27.10;100259.97;5109050;28;20024;-59
2021/06/24 03:55:51;;;;;;;17.17;12.35;;;;;;;38.41;26.77;100264.41;5110898;28;20548;-60
2021/06/24 03:58:16;;;;;;;19.70;11.73;;;;;;;38.87;25.98;100253.69;5110437;28;20057;-60
2021/06/24 04:00:44;;;;;;;22.35;11.23;;;;;;;39.40;25.34;100262.94;5103233;28;20133;-58
2021/06/24 04:03:10;;;;;;;26.50;11.85;;;;;;;39.85;24.49;100262.38;5108174;28;20040;-58
2021/06/24 04:05:36;;;;;;;19.25;11.48;;;;;;;40.25;24.19;100267.41;5092023;28;20470;-56
2021/06/24 04:08:06;;;;;;;19.65;11.80;;;;;;;40.67;23.37;100268.19;5089562;28;20034;-58
2021/06/24 04:10:31;;;;;;;20.58;12.40;;;;;;;41.03;22.88;100258.91;5090107;28;20388;-60
2021/06/24 04:12:57;;;;;;;20.80;11.82;;;;;;;41.23;22.17;100248.31;5096072;28;20059;-59
2021/06/24 04:15:25;;;;;;;22.67;11.43;;;;;;;41.49;21.99;100230.78;5099870;28;20474;-56
2021/06/24 04:17:50;;;;;;;23.25;12.30;;;;;;;42.21;20.99;100263.66;5110394;28;20031;-58
2021/06/24 04:20:16;;;;;;;19.30;11.70;;;;;;;42.49;21.12;100258.56;5109960;28;20057;-58
2021/06/24 04:22:42;;;;;;;17.85;11.30;;;;;;;42.74;20.68;100256.91;5110775;28;20027;-58
2021/06/24 04:25:10;;;;;;;18.50;11.40;;;;;;;43.02;19.75;100245.31;5106128;28;20036;-61
2021/06/24 04:27:35;;;;;;;20.27;10.95;;;;;;;43.49;19.22;100248.50;5089679;28;20036;-60
2021/06/24 04:30:01;;;;;;;13.30;10.23;;;;;;;44.06;18.77;100241.59;5090300;28;20036;-59
2021/06/24 04:32:28;;;;;;;17.00;11.02;;;;;;;44.61;18.11;100253.03;5090275;28;20036;-60
2021/06/24 04:34:53;;;;;;;20.48;10.20;;;;;;;45.20;17.20;100248.34;5090202;28;20387;-58
2021/06/24 04:37:19;;;;;;;17.15;10.35;;;;;;;45.22;16.53;100181.00;5090592;28;20028;-58
2021/06/24 04:39:44;;;;;;;15.65;9.52;;;;;;;45.95;16.24;100220.16;5089653;28;20039;-58
2021/06/24 04:42:10;;;;;;;19.63;8.95;;;;;;;46.52;15.95;100259.91;5090220;28;20036;-57
2021/06/24 04:44:36;;;;;;;16.85;9.63;;;;;;;46.86;15.19;100254.84;5090042;28;20063;-58
2021/06/24 04:47:03;;;;;;;16.88;10.82;;;;;;;47.28;14.93;100270.59;5090901;28;20028;-55
2021/06/24 04:49:29;;;;;;;16.58;10.32;;;;;;;47.45;14.80;100209.06;5089858;28;20036;-57
2021/06/24 04:51:54;;;;;;;16.45;9.85;;;;;;;48.22;14.05;100264.41;5092652;28;20042;-57
2021/06/24 04:54:20;;;;;;;13.90;9.38;;;;;;;48.63;13.92;100266.94;5093706;28;20036;-58
2021/06/24 04:56:45;;;;;;;17.17;9.60;;;;;;;49.07;13.50;100264.97;5110307;28;20180;-57
2021/06/24 04:59:11;;;;;;;17.33;9.50;;;;;;;49.53;13.21;100255.66;5113884;28;20398;-59
2021/06/24 05:01:37;;;;;;;19.45;9.82;;;;;;;49.71;12.64;100255.97;5114337;28;20031;-58
2021/06/24 05:04:02;;;;;;;15.38;9.20;;;;;;;49.65;12.42;100224.19;5113879;28;20359;-58
2021/06/24 05:06:28;;;;;;;16.73;9.32;;;;;;;50.21;12.48;100252.25;5111841;28;20088;-59
2021/06/24 05:08:54;;;;;;;12.75;9.38;;;;;;;50.62;11.74;100245.91;5114665;28;20047;-59
2021/06/24 05:11:19;;;;;;;16.92;8.57;;;;;;;51.04;11.45;100249.63;5113198;28;20088;-57
2021/06/24 05:13:45;;;;;;;12.35;8.40;;;;;;;51.49;10.93;100253.31;5113372;28;20515;-57
2021/06/24 05:16:10;;;;;;;13.35;8.57;;;;;;;51.77;10.62;100253.97;5099128;27;20055;-56
2021/06/24 05:18:36;;;;;;;14.38;7.97;;;;;;;51.84;10.38;100245.44;5092941;28;20036;-56
2021/06/24 05:21:03;;;;;;;12.88;6.68;;;;;;;52.17;10.10;100254.22;5092736;28;20056;-57
2021/06/24 05:23:28;;;;;;;11.80;6.75;;;;;;;52.68;9.20;100256.09;5093333;28;20028;-60
2021/06/24 05:25:54;;;;;;;11.48;7.50;;;;;;;53.19;9.28;100253.34;5093880;28;20036;-60
2021/06/24 05:28:19;;;;;;;10.48;7.38;;;;;;;53.80;9.18;100252.56;5092811;28;20086;-60
2021/06/24 05:30:46;;;;;;;14.15;8.38;;;;;;;54.09;8.92;100252.50;5093252;28;20044;-60
2021/06/24 05:33:13;;;;;;;14.05;7.97;;;;;;;54.31;8.85;100255.28;5092968;28;20031;-60
2021/06/24 05:35:39;;;;;;;13.15;7.72;;;;;;;54.47;8.28;100211.84;5093784;28;20039;-60
2021/06/24 05:38:08;;;;;;;13.30;8.75;;;;;;;55.17;8.26;100243.78;5093241;28;20032;-59
2021/06/24 05:40:33;;;;;;;13.73;8.80;;;;;;;55.54;7.86;100247.16;5092824;28;20475;-59
2021/06/24 05:42:59;;;;;;;16.90;9.52;;;;;;;55.81;7.71;100246.50;5092706;28;20052;-58
2021/06/24 05:45:27;;;;;;;13.60;9.80;;;;;;;56.00;7.63;100231.53;5092345;28;20115;-59
2021/06/24 05:47:55;;;;;;;13.10;8.07;;;;;;;56.25;7.11;100224.66;5092443;28;20032;-59
2021/06/24 05:50:22;;;;;;;13.52;9.55;;;;;;;56.48;7.00;100195.19;5092831;28;20050;-59
2021/06/24 05:52:48;;;;;;;16.30;9.00;;;;;;;57.14;6.57;100235.28;5092240;28;20040;-59
2021/06/24 05:55:13;;;;;;;12.00;8.88;;;;;;;57.43;6.51;100231.97;5091096;28;20050;-59
2021/06/24 05:57:39;;;;;;;15.13;8.40;;;;;;;57.77;5.91;100230.13;5094048;28;20111;-58
2021/06/24 06:00:06;;;;;;;10.80;7.88;;;;;;;57.99;5.61;100195.94;5092267;28;20036;-60
2021/06/24 06:02:32;;;;;;;14.02;7.63;;;;;;;58.76;5.36;100246.97;5091325;28;20036;-59
2021/06/24 06:04:57;;;;;;;10.25;7.43;;;;;;;58.90;4.77;100222.75;5090939;28;20036;-58
2021/06/24 06:07:23;;;;;;;13.90;7.10;;;;;;;58.63;4.56;100131.53;5093154;28;20024;-60
2021/06/24 06:09:48;;;;;;;12.93;6.75;;;;;;;59.73;4.30;100222.69;5092254;28;20043;-60
2021/06/24 06:12:14;;;;;;;8.70;6.50;;;;;;;60.11;3.81;100219.13;5091685;28;20384;-60
2021/06/24 06:14:39;;;;;;;12.27;6.65;;;;;;;60.71;3.87;100237.13;5092319;28;20055;-59
2021/06/24 06:17:05;;;;;;;11.25;6.95;;;;;;;61.00;3.94;100233.28;5091881;28;20108;-59
2021/06/24 06:19:30;;;;;;;12.32;6.90;;;;;;;61.06;3.03;100190.09;5105830;28;20031;-60
2021/06/24 06:21:56;;;;;;;9.07;6.55;;;;;;;61.53;2.98;100223.25;5112182;28;20124;-59
2021/06/24 06:24:21;;;;;;;12.98;7.00;;;;;;;61.42;3.69;100220.72;5111940;28;20030;-64
2021/06/24 06:26:47;;;;;;;13.07;7.60;;;;;;;61.49;3.03;100232.03;5112199;28;20134;-60
2021/06/24 06:29:18;;;;;;;8.00;6.93;;;;;;;61.67;3.04;100222.69;5100394;28;20181;-59
2021/06/24 06:31:44;;;;;;;11.10;7.85;;;;;;;61.98;2.81;100215.34;5091454;28;20475;-58
2021/06/24 06:34:09;;;;;;;10.35;9.27;;;;;;;62.04;2.52;100201.06;5091542;28;20120;-59
2021/06/24 06:36:35;;;;;;;10.88;9.13;;;;;;;62.32;3.01;100218.63;5090372;28;20089;-60
2021/06/24 06:39:03;;;;;;;9.52;8.55;;;;;;;62.69;2.35;100227.50;5093063;28;20035;-59
2021/06/24 06:41:29;;;;;;;14.30;9.63;;;;;;;62.85;2.78;100224.31;5091109;28;20138;-60
2021/06/24 06:43:54;;;;;;;18.33;9.98;;;;;;;63.00;2.37;100209.25;5091554;28;20165;-63
2021/06/24 06:46:20;;;;;;;10.88;9.38;;;;;;;62.92;2.63;100222.41;5089709;28;20040;-60
2021/06/24 06:48:46;;;;;;;10.73;9.70;;;;;;;62.71;2.21;100208.34;5091330;28;20054;-60
2021/06/24 06:51:11;;;;;;;12.13;10.23;;;;;;;62.66;2.37;100216.81;5092367;28;20036;-60
2021/06/24 06:53:37;;;;;;;13.75;11.07;;;;;;;62.62;2.10;100219.06;5090899;28;20054;-58
2021/06/24 06:56:04;;;;;;;14.60;11.27;;;;;;;62.78;2.18;100213.03;5091685;28;20229;-59
2021/06/24 06:58:29;;;;;;;12.65;10.93;;;;;;;62.84;2.14;100210.31;5090855;28;20117;-60
2021/06/24 07:00:55;;;;;;;17.30;11.27;;;;;;;63.11;2.34;100217.47;5091730;28;20072;-59
2021/06/24 07:03:28;;;;;;;15.10;11.80;;;;;;;63.42;1.95;100220.22;5089997;28;20418;-59
2021/06/24 07:05:53;;;;;;;13.30;11.93;;;;;;;63.71;1.64;100218.97;5090999;28;20055;-58
2021/06/24 07:08:19;;;;;;;14.43;12.90;;;;;;;63.71;1.55;100200.69;5090576;28;20032;-60
2021/06/24 07:10:45;;;;;;;14.75;13.38;;;;;;;63.50;1.78;100209.09;5092246;28;20028;-60
2021/06/24 07:13:10;;;;;;;16.02;14.40;;;;;;;63.31;2.00;100202.50;5090896;28;20075;-59
2021/06/24 07:15:36;;;;;;;14.70;13.30;;;;;;;63.38;1.60;100199.25;5094638;28;20032;-60
2021/06/24 07:18:01;;;;;;;16.17;14.80;;;;;;;63.39;1.83;100197.97;5097937;28;20063;-59
2021/06/24 07:20:27;;;;;;;15.13;13.63;;;;;;;63.64;1.51;100207.66;5099542;28;20084;-59
2021/06/24 07:22:53;;;;;;;15.57;13.95;;;;;;;63.59;1.52;100172.66;5099155;28;20456;-59
2021/06/24 07:25:19;;;;;;;15.25;13.65;;;;;;;63.81;1.27;100204.41;5100859;28;20098;-60
2021/06/24 07:27:45;;;;;;;18.17;16.33;;;;;;;64.06;1.27;100202.41;5099826;28;20040;-61
2021/06/24 07:30:12;;;;;;;17.60;15.80;;;;;;;64.02;1.28;100202.56;5099048;28;20039;-58
2021/06/24 07:32:38;;;;;;;20.92;15.82;;;;;;;63.98;1.23;100202.78;5100057;28;20057;-58
2021/06/24 07:35:04;;;;;;;17.17;15.60;;;;;;;64.11;1.92;100193.06;5097756;28;20074;-59
2021/06/24 07:37:30;;;;;;;18.58;16.70;;;;;;;64.16;2.20;100194.50;5097706;28;20127;-59
2021/06/24 07:39:56;;;;;;;16.65;15.10;;;;;;;64.21;0.87;100190.91;5100174;28;20110;-60
2021/06/24 07:42:21;;;;;;;18.13;16.25;;;;;;;64.38;1.33;100185.53;5099799;28;20059;-59
2021/06/24 07:44:48;;;;;;;18.98;17.38;;;;;;;64.20;1.05;100189.31;5099192;28;20032;-59
2021/06/24 07:47:14;;;;;;;17.80;16.00;;;;;;;64.02;1.36;100173.50;5101309;28;20505;-58
2021/06/24 07:49:40;;;;;;;19.63;17.90;;;;;;;64.01;1.29;100162.41;5099821;28;20047;-59
2021/06/24 07:52:05;;;;;;;19.35;17.48;;;;;;;64.27;1.36;100172.31;5102561;28;20060;-58
2021/06/24 07:54:31;;;;;;;22.75;20.88;;;;;;;64.16;1.42;100159.63;5092578;28;20035;-58
2021/06/24 07:56:57;;;;;;;19.95;18.15;;;;;;;63.92;1.20;100181.50;5089802;28;20040;-58
2021/06/24 07:59:23;;;;;;;21.23;19.20;;;;;;;63.53;1.57;100172.47;5089180;28;20093;-59
2021/06/24 08:01:48;;;;;;;19.25;17.27;;;;;;;63.36;1.75;100164.09;5099855;28;20061;-56
2021/06/24 08:04:14;;;;;;;19.63;17.70;;;;;;;62.72;1.95;100169.34;5091163;28;20483;-59
2021/06/24 08:06:39;;;;;;;17.05;15.45;;;;;;;61.72;2.39;100123.59;5098833;28;20277;-59
2021/06/24 08:09:07;;;;;;;16.40;14.98;;;;;;;61.50;2.33;100148.84;5105422;28;20031;-60
2021/06/24 08:11:32;;;;;;;16.60;13.90;;;;;;;61.11;2.11;100143.19;5095865;28;20065;-60
2021/06/24 08:13:58;;;;;;;15.63;14.07;;;;;;;60.60;2.43;100142.84;5102891;28;20126;-59
2021/06/24 08:16:26;;;;;;;14.25;12.02;;;;;;;60.31;2.61;100160.28;5095179;28;20035;-59
2021/06/24 08:18:52;;;;;;;14.40;12.82;;;;;;;60.08;2.82;100152.78;5100943;28;20089;-59
2021/06/24 08:21:17;;;;;;;11.82;10.65;;;;;;;59.33;2.79;100132.19;5104551;28;20036;-61
2021/06/24 08:23:43;;;;;;;10.98;9.88;;;;;;;57.89;3.61;100096.16;5096906;28;20031;-60
2021/06/24 08:26:08;;;;;;;10.30;7.88;;;;;;;56.26;4.01;100139.25;5100128;28;20043;-59
2021/06/24 08:28:34;;;;;;;12.23;7.10;;;;;;;53.81;5.84;100145.41;5110977;28;20406;-58
2021/06/24 08:31:00;;;;;;;11.52;6.72;;;;;;;51.44;7.25;100144.44;5091365;27;20028;-59
2021/06/24 08:33:26;;;;;;;7.28;5.38;;;;;;;49.17;8.36;100153.50;5099911;28;20067;-58
2021/06/24 08:35:52;;;;;;;13.48;5.50;;;;;;;47.31;9.65;100147.16;5106962;27;20066;-61
2021/06/24 08:38:18;;;;;;;10.43;5.22;;;;;;;45.85;11.17;100147.91;5095507;28;20472;-57
2021/06/24 08:40:44;;;;;;;12.43;5.38;;;;;;;44.70;12.20;100151.31;5112784;28;20035;-58
2021/06/24 08:43:11;;;;;;;10.02;5.63;;;;;;;43.60;12.66;100135.03;5098113;28;20040;-58
2021/06/24 08:45:39;;;;;;;9.32;5.70;;;;;;;42.91;13.57;100153.88;5101883;28;20074;-58
2021/06/24 08:48:13;;;;;;;8.70;5.63;;;;;;;42.34;13.75;100150.13;5102936;27;20111;-59
2021/06/24 08:50:44;;;;;;;11.13;5.18;;;;;;;41.86;14.34;100152.72;5110095;28;20044;-57
2021/06/24 08:53:10;;;;;;;12.20;5.35;;;;;;;41.29;14.79;100151.53;5097320;28;20032;-56
2021/06/24 08:55:39;;;;;;;14.00;5.68;;;;;;;40.78;15.31;100133.25;5114789;27;20035;-57
2021/06/24 08:58:13;;;;;;;10.27;5.68;;;;;;;40.59;15.95;100154.72;5104942;27;20039;-54
2021/06/24 09:00:39;;;;;;;9.57;5.53;;;;;;;40.24;16.40;100156.38;5111751;28;20027;-60
2021/06/24 09:03:19;;;;;;;9.93;5.50;;;;;;;40.12;16.46;100162.56;5098679;27;20066;-54
2021/06/24 09:06:01;;;;;;;7.88;5.20;;;;;;;39.88;16.33;100167.28;5103438;28;20040;-53
2021/06/24 09:08:36;;;;;;;11.93;5.95;;;;;;;39.68;16.77;100171.34;5103194;28;20044;-57
2021/06/24 09:11:23;;;;;;;8.07;5.13;;;;;;;39.53;16.63;100169.66;5104087;27;20028;-56
2021/06/24 09:14:04;;;;;;;9.25;5.22;;;;;;;39.38;16.96;100156.78;5102299;28;20337;-58
2021/06/24 09:16:32;;;;;;;7.82;5.03;;;;;;;39.01;17.05;100125.84;5110001;28;20043;-59
2021/06/24 09:19:21;;;;;;;9.32;5.35;;;;;;;39.22;16.93;100147.84;5099002;27;20062;-54
2021/06/24 09:21:56;;;;;;;8.80;5.30;;;;;;;39.16;17.78;100154.69;5107447;27;20593;-59
2021/06/24 09:24:33;;;;;;;9.60;5.82;;;;;;;39.10;17.86;100139.13;5109290;28;20036;-57
2021/06/24 09:27:00;;;;;;;15.20;5.45;;;;;;;39.05;18.55;100135.25;5098631;27;20054;-58
2021/06/24 09:29:26;;;;;;;11.35;5.32;;;;;;;39.13;18.28;100138.50;5109803;27;20063;-55
2021/06/24 09:31:54;;;;;;;10.50;6.57;;;;;;;39.12;18.04;100142.44;5103998;28;20482;-60
2021/06/24 09:34:22;;;;;;;11.85;5.78;;;;;;;39.01;18.06;100136.22;5111502;27;20066;-57
2021/06/24 09:36:50;;;;;;;10.93;5.47;;;;;;;39.02;18.36;100137.88;5095934;27;20036;-59
2021/06/24 09:39:48;;;;;;;9.18;5.50;;;;;;;39.12;18.03;100146.06;5091312;28;20024;-60
2021/06/24 09:42:15;;;;;;;12.48;5.43;;;;;;;38.96;18.47;100133.50;5092258;28;20498;-61
2021/06/24 09:44:47;;;;;;;12.63;5.28;;;;;;;38.89;18.84;100140.28;5097608;28;20379;-56
2021/06/24 09:47:26;;;;;;;10.65;5.55;;;;;;;38.66;19.05;100119.72;5096091;28;20134;-60
2021/06/24 09:50:03;;;;;;;10.20;5.68;;;;;;;38.82;18.49;100144.63;5103875;28;20023;-62
2021/06/24 09:52:30;;;;;;;8.27;5.22;;;;;;;38.69;18.91;100141.50;5095584;28;20042;-59
2021/06/24 09:55:13;;;;;;;14.30;6.10;;;;;;;38.79;18.69;100134.03;5097500;28;20541;-58
2021/06/24 09:57:39;;;;;;;13.82;5.15;;;;;;;38.77;18.82;100137.16;5101893;28;20035;-60
2021/06/24 10:00:28;;;;;;;9.60;5.70;;;;;;;38.86;18.54;100134.50;5103787;28;20034;-59
2021/06/24 10:03:07;;;;;;;6.72;5.05;;;;;;;38.88;18.89;100140.63;5095901;28;20456;-61
2021/06/24 10:05:34;;;;;;;9.63;6.00;;;;;;;38.69;19.36;100138.69;5099719;28;20028;-59
2021/06/24 10:08:00;;;;;;;10.05;5.75;;;;;;;38.66;18.67;100124.47;5108056;28;20099;-59
2021/06/24 10:10:25;;;;;;;10.52;5.38;;;;;;;38.64;18.65;100138.78;5097511;28;20143;-61
2021/06/24 10:12:51;;;;;;;13.95;5.30;;;;;;;38.29;19.36;100077.53;5095607;28;20070;-57
2021/06/24 10:15:17;;;;;;;11.60;5.90;;;;;;;38.59;19.37;100131.31;5107529;28;20035;-62
2021/06/24 10:17:43;;;;;;;12.27;5.45;;;;;;;38.65;18.82;100145.19;5101361;28;20075;-61
2021/06/24 10:20:11;;;;;;;9.30;5.32;;;;;;;38.61;19.19;100137.41;5099151;28;20348;-56
2021/06/24 10:22:39;;;;;;;13.07;5.78;;;;;;;38.66;19.33;100138.47;5100135;28;20491;-57
2021/06/24 10:25:11;;;;;;;13.25;5.60;;;;;;;38.70;19.39;100143.16;5094974;28;20092;-60
2021/06/24 10:27:39;;;;;;;11.07;5.70;;;;;;;38.79;19.27;100137.69;5102504;28;20487;-62
2021/06/24 10:30:16;;;;;;;9.20;5.38;;;;;;;38.89;19.14;100145.06;5105030;28;20137;-59
2021/06/24 10:33:02;;;;;;;10.45;6.00;;;;;;;38.96;18.83;100136.31;5094582;28;20150;-58
2021/06/24 10:35:43;;;;;;;8.27;5.50;;;;;;;38.43;19.06;100066.38;5101727;28;20042;-61
2021/06/24 10:38:11;;;;;;;14.35;5.93;;;;;;;38.79;18.91;100129.28;5098877;28;20101;-59
2021/06/24 10:40:38;;;;;;;10.85;5.65;;;;;;;38.69;18.76;100133.09;5094698;28;20032;-58
2021/06/24 10:43:05;;;;;;;10.88;6.00;;;;;;;38.57;19.23;100139.19;5107165;28;20036;-59
2021/06/24 10:45:32;;;;;;;6.88;5.07;;;;;;;38.44;19.03;100135.19;5097056;28;20032;-61
2021/06/24 10:47:58;;;;;;;8.82;5.53;;;;;;;38.04;19.46;100089.94;5100440;28;20106;-61
2021/06/24 10:50:26;;;;;;;6.97;5.55;;;;;;;38.29;19.56;100129.81;5091442;28;20525;-62
2021/06/24 10:52:56;;;;;;;12.90;5.57;;;;;;;38.13;19.76;100121.66;5106902;28;20101;-60
2021/06/24 10:55:36;;;;;;;10.52;5.88;;;;;;;38.19;20.05;100134.44;5097630;28;20035;-61
2021/06/24 10:58:10;;;;;;;8.85;5.30;;;;;;;38.08;20.13;100120.91;5097967;28;20040;-59
2021/06/24 11:00:52;;;;;;;12.30;5.45;;;;;;;38.00;20.39;100114.03;5105537;28;21039;-58
2021/06/24 11:03:24;;;;;;;13.77;6.47;;;;;;;38.00;20.41;100119.63;5094892;28;20453;-60
2021/06/24 11:05:52;;;;;;;9.38;5.50;;;;;;;37.88;20.33;100112.50;5100633;27;20028;-60
2021/06/24 11:08:20;;;;;;;11.30;5.75;;;;;;;37.97;20.83;100121.03;5103400;28;20070;-57
2021/06/24 11:10:57;;;;;;;12.85;5.38;;;;;;;38.06;20.75;100118.41;5092559;28;20036;-58
2021/06/24 11:13:35;;;;;;;13.13;6.28;;;;;;;38.11;20.19;100114.72;5094736;28;20062;-61
2021/06/24 11:16:10;;;;;;;7.95;5.63;;;;;;;38.05;20.70;100111.16;5099505;28;20051;-62
2021/06/24 11:18:35;;;;;;;;;;;;;;;38.23;19.89;100119.84;5106154;28;20048;-59